sensor_id;sensor_type;location;lat;lon;timestamp;P1;durP1;ratioP1;P2;durP2;ratioP2
69985;SDS011;57328;52.054;5.294;2023-06-10T00:04:48;9.98;;;5.68;;
69985;SDS011;57328;52.054;5.294;2023-06-10T00:07:17;12.65;;;6.50;;
69985;SDS011;57328;52.054;5.294;2023-06-10T00:09:44;13.15;;;6.28;;
69985;SDS011;57328;52.054;5.294;2023-06-10T00:15:41;11.07;;;5.95;;
69985;SDS011;57328;52.054;5.294;2023-06-10T00:18:08;18.50;;;6.07;;
69985;SDS011;57328;52.054;5.294;2023-06-10T00:20:36;11.02;;;5.97;;
69985;SDS011;57328;52.054;5.294;2023-06-10T00:23:04;9.45;;;5.80;;
69985;SDS011;57328;52.054;5.294;2023-06-10T00:25:34;9.90;;;5.70;;
69985;SDS011;57328;52.054;5.294;2023-06-10T00:28:04;10.65;;;5.93;;
69985;SDS011;57328;52.054;5.294;2023-06-10T00:30:32;11.93;;;6.30;;
69985;SDS011;57328;52.054;5.294;2023-06-10T00:32:59;11.85;;;5.60;;
69985;SDS011;57328;52.054;5.294;2023-06-10T00:35:27;12.73;;;5.63;;
69985;SDS011;57328;52.054;5.294;2023-06-10T00:37:55;8.93;;;5.72;;
69985;SDS011;57328;52.054;5.294;2023-06-10T00:40:22;12.63;;;6.28;;
69985;SDS011;57328;52.054;5.294;2023-06-10T00:42:50;9.95;;;5.45;;
69985;SDS011;57328;52.054;5.294;2023-06-10T00:45:17;16.17;;;5.88;;
69985;SDS011;57328;52.054;5.294;2023-06-10T00:47:44;10.23;;;5.32;;
69985;SDS011;57328;52.054;5.294;2023-06-10T00:50:12;10.50;;;5.40;;
69985;SDS011;57328;52.054;5.294;2023-06-10T00:52:39;9.63;;;5.50;;
69985;SDS011;57328;52.054;5.294;2023-06-10T00:55:09;10.38;;;5.53;;
69985;SDS011;57328;52.054;5.294;2023-06-10T00:57:37;14.63;;;5.60;;
69985;SDS011;57328;52.054;5.294;2023-06-10T01:00:05;9.98;;;5.28;;
69985;SDS011;57328;52.054;5.294;2023-06-10T01:02:34;10.23;;;5.15;;
69985;SDS011;57328;52.054;5.294;2023-06-10T01:05:02;11.13;;;5.50;;
69985;SDS011;57328;52.054;5.294;2023-06-10T01:10:50;9.88;;;4.85;;
69985;SDS011;57328;52.054;5.294;2023-06-10T01:13:18;10.57;;;4.88;;
69985;SDS011;57328;52.054;5.294;2023-06-10T01:15:49;10.15;;;4.68;;
69985;SDS011;57328;52.054;5.294;2023-06-10T01:18:17;8.57;;;4.80;;
69985;SDS011;57328;52.054;5.294;2023-06-10T01:20:44;10.18;;;5.00;;
69985;SDS011;57328;52.054;5.294;2023-06-10T01:23:16;12.00;;;5.25;;
69985;SDS011;57328;52.054;5.294;2023-06-10T01:25:46;9.48;;;4.70;;
69985;SDS011;57328;52.054;5.294;2023-06-10T01:30:55;9.90;;;4.85;;
69985;SDS011;57328;52.054;5.294;2023-06-10T01:33:31;10.00;;;4.80;;
69985;SDS011;57328;52.054;5.294;2023-06-10T01:36:00;12.18;;;4.72;;
69985;SDS011;57328;52.054;5.294;2023-06-10T01:38:30;10.27;;;4.88;;
69985;SDS011;57328;52.054;5.294;2023-06-10T01:41:00;10.45;;;4.40;;
69985;SDS011;57328;52.054;5.294;2023-06-10T01:43:27;9.70;;;4.88;;
69985;SDS011;57328;52.054;5.294;2023-06-10T01:45:57;8.90;;;4.38;;
69985;SDS011;57328;52.054;5.294;2023-06-10T01:48:24;9.90;;;4.40;;
69985;SDS011;57328;52.054;5.294;2023-06-10T01:50:53;9.13;;;4.43;;
69985;SDS011;57328;52.054;5.294;2023-06-10T01:53:22;11.20;;;4.60;;
69985;SDS011;57328;52.054;5.294;2023-06-10T01:55:50;7.93;;;4.30;;
69985;SDS011;57328;52.054;5.294;2023-06-10T01:58:17;8.60;;;4.63;;
69985;SDS011;57328;52.054;5.294;2023-06-10T02:00:45;9.70;;;4.07;;
69985;SDS011;57328;52.054;5.294;2023-06-10T02:09:26;11.07;;;5.22;;
69985;SDS011;57328;52.054;5.294;2023-06-10T02:14:43;9.00;;;4.30;;
69985;SDS011;57328;52.054;5.294;2023-06-10T02:17:11;10.35;;;4.30;;
69985;SDS011;57328;52.054;5.294;2023-06-10T02:19:39;9.65;;;4.82;;
69985;SDS011;57328;52.054;5.294;2023-06-10T02:22:09;9.77;;;4.45;;
69985;SDS011;57328;52.054;5.294;2023-06-10T02:27:42;10.60;;;4.78;;
69985;SDS011;57328;52.054;5.294;2023-06-10T02:30:10;9.02;;;4.15;;
69985;SDS011;57328;52.054;5.294;2023-06-10T02:32:37;9.30;;;4.60;;
69985;SDS011;57328;52.054;5.294;2023-06-10T02:35:05;11.73;;;5.07;;
69985;SDS011;57328;52.054;5.294;2023-06-10T02:37:33;9.13;;;3.78;;
69985;SDS011;57328;52.054;5.294;2023-06-10T02:40:01;9.50;;;4.22;;
69985;SDS011;57328;52.054;5.294;2023-06-10T02:44:57;8.50;;;4.35;;
69985;SDS011;57328;52.054;5.294;2023-06-10T02:47:25;7.28;;;3.83;;
69985;SDS011;57328;52.054;5.294;2023-06-10T02:49:52;11.70;;;4.40;;
69985;SDS011;57328;52.054;5.294;2023-06-10T02:52:21;14.15;;;4.72;;
69985;SDS011;57328;52.054;5.294;2023-06-10T02:54:49;9.00;;;4.40;;
69985;SDS011;57328;52.054;5.294;2023-06-10T02:57:16;10.27;;;4.60;;
69985;SDS011;57328;52.054;5.294;2023-06-10T02:59:43;12.68;;;4.82;;
69985;SDS011;57328;52.054;5.294;2023-06-10T03:02:11;8.27;;;3.90;;
69985;SDS011;57328;52.054;5.294;2023-06-10T03:04:40;10.77;;;4.00;;
69985;SDS011;57328;52.054;5.294;2023-06-10T03:07:07;8.48;;;4.30;;
69985;SDS011;57328;52.054;5.294;2023-06-10T03:09:34;12.52;;;4.50;;
69985;SDS011;57328;52.054;5.294;2023-06-10T03:12:02;10.85;;;4.50;;
69985;SDS011;57328;52.054;5.294;2023-06-10T03:14:29;9.82;;;4.47;;
69985;SDS011;57328;52.054;5.294;2023-06-10T03:16:56;9.65;;;4.00;;
69985;SDS011;57328;52.054;5.294;2023-06-10T03:19:23;10.50;;;4.97;;
69985;SDS011;57328;52.054;5.294;2023-06-10T03:22:06;9.00;;;4.60;;
69985;SDS011;57328;52.054;5.294;2023-06-10T03:24:34;9.52;;;4.28;;
69985;SDS011;57328;52.054;5.294;2023-06-10T03:27:02;21.52;;;4.68;;
69985;SDS011;57328;52.054;5.294;2023-06-10T03:29:33;11.98;;;4.32;;
69985;SDS011;57328;52.054;5.294;2023-06-10T03:32:01;9.95;;;4.30;;
69985;SDS011;57328;52.054;5.294;2023-06-10T03:34:29;8.73;;;3.83;;
69985;SDS011;57328;52.054;5.294;2023-06-10T03:36:57;8.95;;;4.15;;
69985;SDS011;57328;52.054;5.294;2023-06-10T03:39:25;9.32;;;3.90;;
69985;SDS011;57328;52.054;5.294;2023-06-10T03:41:55;9.57;;;4.32;;
69985;SDS011;57328;52.054;5.294;2023-06-10T03:44:26;7.90;;;3.58;;
69985;SDS011;57328;52.054;5.294;2023-06-10T03:46:54;10.32;;;4.32;;
69985;SDS011;57328;52.054;5.294;2023-06-10T03:49:23;11.68;;;4.93;;
69985;SDS011;57328;52.054;5.294;2023-06-10T03:51:53;10.80;;;5.25;;
69985;SDS011;57328;52.054;5.294;2023-06-10T04:00:17;9.95;;;4.05;;
69985;SDS011;57328;52.054;5.294;2023-06-10T04:02:45;9.82;;;4.13;;
69985;SDS011;57328;52.054;5.294;2023-06-10T04:05:14;10.57;;;4.35;;
69985;SDS011;57328;52.054;5.294;2023-06-10T04:07:42;10.23;;;4.85;;
69985;SDS011;57328;52.054;5.294;2023-06-10T04:10:10;13.05;;;5.35;;
69985;SDS011;57328;52.054;5.294;2023-06-10T04:15:06;9.63;;;4.50;;
69985;SDS011;57328;52.054;5.294;2023-06-10T04:17:34;8.88;;;4.25;;
69985;SDS011;57328;52.054;5.294;2023-06-10T04:20:02;9.45;;;4.57;;
69985;SDS011;57328;52.054;5.294;2023-06-10T04:22:33;12.30;;;4.60;;
69985;SDS011;57328;52.054;5.294;2023-06-10T04:25:01;10.20;;;4.32;;
69985;SDS011;57328;52.054;5.294;2023-06-10T04:27:29;10.90;;;4.90;;
69985;SDS011;57328;52.054;5.294;2023-06-10T04:29:57;11.02;;;4.70;;
69985;SDS011;57328;52.054;5.294;2023-06-10T04:32:24;9.80;;;4.47;;
69985;SDS011;57328;52.054;5.294;2023-06-10T04:34:52;12.05;;;4.30;;
69985;SDS011;57328;52.054;5.294;2023-06-10T04:37:20;12.23;;;4.70;;
69985;SDS011;57328;52.054;5.294;2023-06-10T04:39:47;10.88;;;4.72;;
69985;SDS011;57328;52.054;5.294;2023-06-10T04:42:15;9.60;;;4.25;;
69985;SDS011;57328;52.054;5.294;2023-06-10T04:44:42;9.23;;;4.28;;
69985;SDS011;57328;52.054;5.294;2023-06-10T04:47:09;10.90;;;4.53;;
69985;SDS011;57328;52.054;5.294;2023-06-10T04:49:37;9.48;;;4.68;;
69985;SDS011;57328;52.054;5.294;2023-06-10T04:52:04;11.02;;;4.60;;
69985;SDS011;57328;52.054;5.294;2023-06-10T04:54:32;9.82;;;4.55;;
69985;SDS011;57328;52.054;5.294;2023-06-10T04:56:59;9.52;;;4.53;;
69985;SDS011;57328;52.054;5.294;2023-06-10T04:59:26;9.38;;;4.82;;
69985;SDS011;57328;52.054;5.294;2023-06-10T05:01:54;11.90;;;4.93;;
69985;SDS011;57328;52.054;5.294;2023-06-10T05:04:22;8.10;;;4.85;;
69985;SDS011;57328;52.054;5.294;2023-06-10T05:06:50;9.95;;;4.78;;
69985;SDS011;57328;52.054;5.294;2023-06-10T05:09:18;13.48;;;4.78;;
69985;SDS011;57328;52.054;5.294;2023-06-10T05:14:50;10.82;;;4.97;;
69985;SDS011;57328;52.054;5.294;2023-06-10T05:17:18;11.02;;;4.60;;
69985;SDS011;57328;52.054;5.294;2023-06-10T05:19:46;11.43;;;4.53;;
69985;SDS011;57328;52.054;5.294;2023-06-10T05:25:01;11.65;;;5.18;;
69985;SDS011;57328;52.054;5.294;2023-06-10T05:27:29;9.40;;;4.93;;
69985;SDS011;57328;52.054;5.294;2023-06-10T05:29:56;12.43;;;5.18;;
69985;SDS011;57328;52.054;5.294;2023-06-10T05:32:24;10.30;;;5.18;;
69985;SDS011;57328;52.054;5.294;2023-06-10T05:34:51;11.15;;;5.40;;
69985;SDS011;57328;52.054;5.294;2023-06-10T05:42:32;9.60;;;5.18;;
69985;SDS011;57328;52.054;5.294;2023-06-10T05:44:59;10.07;;;4.55;;
69985;SDS011;57328;52.054;5.294;2023-06-10T05:47:27;9.25;;;4.90;;
69985;SDS011;57328;52.054;5.294;2023-06-10T05:49:55;13.27;;;5.68;;
69985;SDS011;57328;52.054;5.294;2023-06-10T05:52:22;13.57;;;5.10;;
69985;SDS011;57328;52.054;5.294;2023-06-10T05:57:17;10.90;;;4.80;;
69985;SDS011;57328;52.054;5.294;2023-06-10T05:59:45;10.40;;;4.90;;
69985;SDS011;57328;52.054;5.294;2023-06-10T06:02:12;10.55;;;4.93;;
69985;SDS011;57328;52.054;5.294;2023-06-10T06:04:40;9.43;;;5.07;;
69985;SDS011;57328;52.054;5.294;2023-06-10T06:07:08;12.18;;;5.68;;
69985;SDS011;57328;52.054;5.294;2023-06-10T06:12:03;9.02;;;5.25;;
69985;SDS011;57328;52.054;5.294;2023-06-10T06:14:30;12.00;;;4.85;;
69985;SDS011;57328;52.054;5.294;2023-06-10T06:16:59;9.25;;;5.03;;
69985;SDS011;57328;52.054;5.294;2023-06-10T06:19:30;8.80;;;4.80;;
69985;SDS011;57328;52.054;5.294;2023-06-10T06:21:57;13.57;;;5.32;;
69985;SDS011;57328;52.054;5.294;2023-06-10T06:24:25;9.73;;;4.95;;
69985;SDS011;57328;52.054;5.294;2023-06-10T06:26:52;9.98;;;5.05;;
69985;SDS011;57328;52.054;5.294;2023-06-10T06:29:20;9.35;;;4.63;;
69985;SDS011;57328;52.054;5.294;2023-06-10T06:31:48;9.23;;;4.97;;
69985;SDS011;57328;52.054;5.294;2023-06-10T06:36:45;9.57;;;4.80;;
69985;SDS011;57328;52.054;5.294;2023-06-10T06:42:42;9.50;;;5.28;;
69985;SDS011;57328;52.054;5.294;2023-06-10T06:45:09;9.18;;;4.97;;
69985;SDS011;57328;52.054;5.294;2023-06-10T06:47:38;11.38;;;5.03;;
69985;SDS011;57328;52.054;5.294;2023-06-10T06:52:33;9.18;;;4.93;;
69985;SDS011;57328;52.054;5.294;2023-06-10T06:55:00;9.35;;;5.13;;
69985;SDS011;57328;52.054;5.294;2023-06-10T06:57:27;9.90;;;4.70;;
69985;SDS011;57328;52.054;5.294;2023-06-10T07:03:24;11.75;;;5.45;;
69985;SDS011;57328;52.054;5.294;2023-06-10T07:05:51;12.82;;;4.90;;
69985;SDS011;57328;52.054;5.294;2023-06-10T07:08:18;11.68;;;4.70;;
69985;SDS011;57328;52.054;5.294;2023-06-10T07:10:46;11.55;;;5.10;;
69985;SDS011;57328;52.054;5.294;2023-06-10T07:13:13;8.57;;;4.78;;
69985;SDS011;57328;52.054;5.294;2023-06-10T07:15:42;10.73;;;4.93;;
69985;SDS011;57328;52.054;5.294;2023-06-10T07:18:10;10.95;;;4.80;;
69985;SDS011;57328;52.054;5.294;2023-06-10T07:20:40;10.38;;;4.78;;
69985;SDS011;57328;52.054;5.294;2023-06-10T07:23:07;9.35;;;4.90;;
69985;SDS011;57328;52.054;5.294;2023-06-10T07:25:35;10.35;;;5.30;;
69985;SDS011;57328;52.054;5.294;2023-06-10T07:28:03;9.50;;;4.63;;
69985;SDS011;57328;52.054;5.294;2023-06-10T07:30:31;12.05;;;4.70;;
69985;SDS011;57328;52.054;5.294;2023-06-10T07:32:58;8.27;;;4.68;;
69985;SDS011;57328;52.054;5.294;2023-06-10T07:35:27;10.27;;;4.70;;
69985;SDS011;57328;52.054;5.294;2023-06-10T07:37:54;8.93;;;4.70;;
69985;SDS011;57328;52.054;5.294;2023-06-10T07:40:23;10.13;;;5.38;;
69985;SDS011;57328;52.054;5.294;2023-06-10T07:42:51;8.77;;;4.85;;
69985;SDS011;57328;52.054;5.294;2023-06-10T07:45:19;8.80;;;4.95;;
69985;SDS011;57328;52.054;5.294;2023-06-10T07:47:46;11.02;;;4.95;;
69985;SDS011;57328;52.054;5.294;2023-06-10T07:50:14;12.98;;;5.03;;
69985;SDS011;57328;52.054;5.294;2023-06-10T07:52:41;14.48;;;4.90;;
69985;SDS011;57328;52.054;5.294;2023-06-10T07:55:08;9.25;;;4.93;;
69985;SDS011;57328;52.054;5.294;2023-06-10T07:57:37;11.00;;;4.80;;
69985;SDS011;57328;52.054;5.294;2023-06-10T08:00:05;12.95;;;5.40;;
69985;SDS011;57328;52.054;5.294;2023-06-10T08:02:33;9.40;;;5.05;;
69985;SDS011;57328;52.054;5.294;2023-06-10T08:05:00;11.55;;;5.22;;
69985;SDS011;57328;52.054;5.294;2023-06-10T08:07:28;12.18;;;4.90;;
69985;SDS011;57328;52.054;5.294;2023-06-10T08:09:55;8.38;;;4.90;;
69985;SDS011;57328;52.054;5.294;2023-06-10T08:12:22;11.63;;;5.22;;
69985;SDS011;57328;52.054;5.294;2023-06-10T08:14:50;8.65;;;4.50;;
69985;SDS011;57328;52.054;5.294;2023-06-10T08:17:17;8.90;;;4.68;;
69985;SDS011;57328;52.054;5.294;2023-06-10T08:19:45;9.73;;;4.60;;
69985;SDS011;57328;52.054;5.294;2023-06-10T08:22:12;9.95;;;4.97;;
69985;SDS011;57328;52.054;5.294;2023-06-10T08:24:39;11.13;;;5.07;;
69985;SDS011;57328;52.054;5.294;2023-06-10T08:27:06;10.00;;;4.72;;
69985;SDS011;57328;52.054;5.294;2023-06-10T08:29:34;9.50;;;4.63;;
69985;SDS011;57328;52.054;5.294;2023-06-10T08:32:01;13.48;;;5.03;;
69985;SDS011;57328;52.054;5.294;2023-06-10T08:34:28;10.70;;;4.50;;
69985;SDS011;57328;52.054;5.294;2023-06-10T08:36:56;10.23;;;5.00;;
69985;SDS011;57328;52.054;5.294;2023-06-10T08:39:23;9.55;;;4.28;;
69985;SDS011;57328;52.054;5.294;2023-06-10T08:44:30;9.82;;;4.22;;
69985;SDS011;57328;52.054;5.294;2023-06-10T08:47:01;11.02;;;4.80;;
69985;SDS011;57328;52.054;5.294;2023-06-10T08:49:35;8.02;;;4.45;;
69985;SDS011;57328;52.054;5.294;2023-06-10T08:52:05;10.02;;;4.50;;
69985;SDS011;57328;52.054;5.294;2023-06-10T08:54:33;9.13;;;4.20;;
69985;SDS011;57328;52.054;5.294;2023-06-10T08:57:05;10.02;;;4.40;;
69985;SDS011;57328;52.054;5.294;2023-06-10T08:59:32;9.73;;;4.05;;
69985;SDS011;57328;52.054;5.294;2023-06-10T09:02:00;8.35;;;4.38;;
69985;SDS011;57328;52.054;5.294;2023-06-10T09:04:28;9.20;;;4.30;;
69985;SDS011;57328;52.054;5.294;2023-06-10T09:06:55;10.27;;;4.50;;
69985;SDS011;57328;52.054;5.294;2023-06-10T09:09:23;10.38;;;4.47;;
69985;SDS011;57328;52.054;5.294;2023-06-10T09:11:50;8.25;;;4.43;;
69985;SDS011;57328;52.054;5.294;2023-06-10T09:14:17;8.80;;;4.18;;
69985;SDS011;57328;52.054;5.294;2023-06-10T09:16:45;7.53;;;4.05;;
69985;SDS011;57328;52.054;5.294;2023-06-10T09:19:15;8.40;;;4.40;;
69985;SDS011;57328;52.054;5.294;2023-06-10T09:21:43;10.00;;;4.30;;
69985;SDS011;57328;52.054;5.294;2023-06-10T09:24:10;10.43;;;4.47;;
69985;SDS011;57328;52.054;5.294;2023-06-10T09:26:38;11.07;;;4.63;;
69985;SDS011;57328;52.054;5.294;2023-06-10T09:29:06;7.03;;;3.80;;
69985;SDS011;57328;52.054;5.294;2023-06-10T09:31:38;11.57;;;4.53;;
69985;SDS011;57328;52.054;5.294;2023-06-10T09:34:08;9.65;;;4.28;;
69985;SDS011;57328;52.054;5.294;2023-06-10T09:36:36;9.15;;;4.07;;
69985;SDS011;57328;52.054;5.294;2023-06-10T09:39:03;6.70;;;3.25;;
69985;SDS011;57328;52.054;5.294;2023-06-10T09:43:58;9.68;;;4.30;;
69985;SDS011;57328;52.054;5.294;2023-06-10T09:46:29;7.72;;;3.85;;
69985;SDS011;57328;52.054;5.294;2023-06-10T09:48:58;9.95;;;4.07;;
69985;SDS011;57328;52.054;5.294;2023-06-10T09:51:25;9.63;;;3.85;;
69985;SDS011;57328;52.054;5.294;2023-06-10T09:53:53;9.40;;;4.18;;
69985;SDS011;57328;52.054;5.294;2023-06-10T09:58:49;10.32;;;4.15;;
69985;SDS011;57328;52.054;5.294;2023-06-10T10:01:20;7.80;;;3.80;;
69985;SDS011;57328;52.054;5.294;2023-06-10T10:03:48;9.43;;;4.38;;
69985;SDS011;57328;52.054;5.294;2023-06-10T10:06:16;9.82;;;4.38;;
69985;SDS011;57328;52.054;5.294;2023-06-10T10:08:45;7.72;;;3.90;;
69985;SDS011;57328;52.054;5.294;2023-06-10T10:11:17;7.80;;;4.15;;
69985;SDS011;57328;52.054;5.294;2023-06-10T10:13:52;9.02;;;4.60;;
69985;SDS011;57328;52.054;5.294;2023-06-10T10:16:27;9.10;;;4.53;;
69985;SDS011;57328;52.054;5.294;2023-06-10T10:19:03;8.48;;;4.18;;
69985;SDS011;57328;52.054;5.294;2023-06-10T10:21:35;9.30;;;3.78;;
69985;SDS011;57328;52.054;5.294;2023-06-10T10:24:05;8.88;;;3.95;;
69985;SDS011;57328;52.054;5.294;2023-06-10T10:26:34;7.10;;;3.85;;
69985;SDS011;57328;52.054;5.294;2023-06-10T10:31:36;13.55;;;3.67;;
69985;SDS011;57328;52.054;5.294;2023-06-10T10:34:06;8.15;;;4.32;;
69985;SDS011;57328;52.054;5.294;2023-06-10T10:36:34;5.50;;;3.20;;
69985;SDS011;57328;52.054;5.294;2023-06-10T10:39:02;7.88;;;4.18;;
69985;SDS011;57328;52.054;5.294;2023-06-10T10:41:31;8.48;;;3.88;;
69985;SDS011;57328;52.054;5.294;2023-06-10T10:43:59;8.23;;;3.83;;
69985;SDS011;57328;52.054;5.294;2023-06-10T10:46:29;5.97;;;3.85;;
69985;SDS011;57328;52.054;5.294;2023-06-10T10:48:58;8.57;;;4.00;;
69985;SDS011;57328;52.054;5.294;2023-06-10T10:51:26;7.40;;;3.65;;
69985;SDS011;57328;52.054;5.294;2023-06-10T10:54:13;7.50;;;3.88;;
69985;SDS011;57328;52.054;5.294;2023-06-10T10:57:28;7.82;;;3.70;;
69985;SDS011;57328;52.054;5.294;2023-06-10T10:59:42;7.35;;;3.70;;
69985;SDS011;57328;52.054;5.294;2023-06-10T11:02:10;8.80;;;3.95;;
69985;SDS011;57328;52.054;5.294;2023-06-10T11:04:42;7.90;;;3.83;;
69985;SDS011;57328;52.054;5.294;2023-06-10T11:07:11;8.05;;;4.10;;
69985;SDS011;57328;52.054;5.294;2023-06-10T11:10:01;8.57;;;3.83;;
69985;SDS011;57328;52.054;5.294;2023-06-10T11:12:41;8.27;;;3.80;;
69985;SDS011;57328;52.054;5.294;2023-06-10T11:15:09;10.13;;;4.43;;
69985;SDS011;57328;52.054;5.294;2023-06-10T11:17:36;6.80;;;3.60;;
69985;SDS011;57328;52.054;5.294;2023-06-10T11:20:04;6.38;;;4.07;;
69985;SDS011;57328;52.054;5.294;2023-06-10T11:22:32;7.13;;;4.20;;
69985;SDS011;57328;52.054;5.294;2023-06-10T11:24:59;9.15;;;4.30;;
69985;SDS011;57328;52.054;5.294;2023-06-10T11:27:27;6.15;;;3.67;;
69985;SDS011;57328;52.054;5.294;2023-06-10T11:32:33;7.10;;;3.70;;
69985;SDS011;57328;52.054;5.294;2023-06-10T11:35:04;6.95;;;3.63;;
69985;SDS011;57328;52.054;5.294;2023-06-10T11:37:33;9.43;;;4.47;;
69985;SDS011;57328;52.054;5.294;2023-06-10T11:40:00;7.32;;;4.10;;
69985;SDS011;57328;52.054;5.294;2023-06-10T11:42:29;6.60;;;3.75;;
69985;SDS011;57328;52.054;5.294;2023-06-10T11:44:56;6.65;;;3.97;;
69985;SDS011;57328;52.054;5.294;2023-06-10T11:49:56;6.90;;;4.35;;
69985;SDS011;57328;52.054;5.294;2023-06-10T11:52:27;8.35;;;3.85;;
69985;SDS011;57328;52.054;5.294;2023-06-10T11:54:55;8.00;;;4.30;;
69985;SDS011;57328;52.054;5.294;2023-06-10T11:57:22;8.13;;;3.47;;
69985;SDS011;57328;52.054;5.294;2023-06-10T11:59:50;7.03;;;3.95;;
69985;SDS011;57328;52.054;5.294;2023-06-10T12:02:18;8.23;;;4.40;;
69985;SDS011;57328;52.054;5.294;2023-06-10T12:04:45;7.82;;;4.05;;
69985;SDS011;57328;52.054;5.294;2023-06-10T12:07:17;8.68;;;3.90;;
69985;SDS011;57328;52.054;5.294;2023-06-10T12:09:46;8.70;;;4.25;;
69985;SDS011;57328;52.054;5.294;2023-06-10T12:12:13;8.93;;;3.60;;
69985;SDS011;57328;52.054;5.294;2023-06-10T12:14:54;7.93;;;4.38;;
69985;SDS011;57328;52.054;5.294;2023-06-10T12:20:02;8.70;;;4.32;;
69985;SDS011;57328;52.054;5.294;2023-06-10T12:22:37;7.15;;;3.85;;
69985;SDS011;57328;52.054;5.294;2023-06-10T12:25:05;8.93;;;4.43;;
69985;SDS011;57328;52.054;5.294;2023-06-10T12:27:37;7.80;;;3.63;;
69985;SDS011;57328;52.054;5.294;2023-06-10T12:30:07;7.97;;;3.90;;
69985;SDS011;57328;52.054;5.294;2023-06-10T12:33:17;8.60;;;4.22;;
69985;SDS011;57328;52.054;5.294;2023-06-10T12:35:48;8.65;;;3.92;;
69985;SDS011;57328;52.054;5.294;2023-06-10T12:38:23;8.45;;;4.13;;
69985;SDS011;57328;52.054;5.294;2023-06-10T12:40:50;8.73;;;3.97;;
69985;SDS011;57328;52.054;5.294;2023-06-10T12:45:45;8.45;;;4.32;;
69985;SDS011;57328;52.054;5.294;2023-06-10T12:48:19;8.10;;;4.28;;
69985;SDS011;57328;52.054;5.294;2023-06-10T12:50:54;7.18;;;3.58;;
69985;SDS011;57328;52.054;5.294;2023-06-10T12:53:21;7.28;;;4.00;;
69985;SDS011;57328;52.054;5.294;2023-06-10T12:55:49;9.90;;;3.72;;
69985;SDS011;57328;52.054;5.294;2023-06-10T13:00:45;9.80;;;4.00;;
69985;SDS011;57328;52.054;5.294;2023-06-10T13:03:12;6.72;;;3.72;;
69985;SDS011;57328;52.054;5.294;2023-06-10T13:05:39;8.30;;;3.67;;
69985;SDS011;57328;52.054;5.294;2023-06-10T13:08:08;7.35;;;3.75;;
69985;SDS011;57328;52.054;5.294;2023-06-10T13:10:36;6.95;;;3.90;;
69985;SDS011;57328;52.054;5.294;2023-06-10T13:13:04;7.60;;;4.07;;
69985;SDS011;57328;52.054;5.294;2023-06-10T13:15:33;7.70;;;4.18;;
69985;SDS011;57328;52.054;5.294;2023-06-10T13:18:06;7.68;;;3.78;;
69985;SDS011;57328;52.054;5.294;2023-06-10T13:20:34;8.80;;;4.32;;
69985;SDS011;57328;52.054;5.294;2023-06-10T13:23:02;8.60;;;3.97;;
69985;SDS011;57328;52.054;5.294;2023-06-10T13:25:29;9.60;;;4.05;;
69985;SDS011;57328;52.054;5.294;2023-06-10T13:27:56;5.90;;;3.78;;
69985;SDS011;57328;52.054;5.294;2023-06-10T13:30:24;9.48;;;4.20;;
69985;SDS011;57328;52.054;5.294;2023-06-10T13:32:52;7.47;;;3.47;;
69985;SDS011;57328;52.054;5.294;2023-06-10T13:35:20;7.32;;;3.90;;
69985;SDS011;57328;52.054;5.294;2023-06-10T13:37:47;8.07;;;4.05;;
69985;SDS011;57328;52.054;5.294;2023-06-10T13:40:14;8.07;;;4.13;;
69985;SDS011;57328;52.054;5.294;2023-06-10T13:42:42;8.20;;;3.95;;
69985;SDS011;57328;52.054;5.294;2023-06-10T13:45:09;7.93;;;4.57;;
69985;SDS011;57328;52.054;5.294;2023-06-10T13:47:39;11.27;;;3.85;;
69985;SDS011;57328;52.054;5.294;2023-06-10T13:50:07;10.25;;;4.65;;
69985;SDS011;57328;52.054;5.294;2023-06-10T13:52:34;7.60;;;4.13;;
69985;SDS011;57328;52.054;5.294;2023-06-10T13:55:04;8.10;;;3.80;;
69985;SDS011;57328;52.054;5.294;2023-06-10T13:57:32;8.85;;;4.00;;
69985;SDS011;57328;52.054;5.294;2023-06-10T13:59:59;6.45;;;3.70;;
69985;SDS011;57328;52.054;5.294;2023-06-10T14:02:26;8.50;;;4.28;;
69985;SDS011;57328;52.054;5.294;2023-06-10T14:04:54;7.30;;;3.90;;
69985;SDS011;57328;52.054;5.294;2023-06-10T14:07:21;8.23;;;4.00;;
69985;SDS011;57328;52.054;5.294;2023-06-10T14:09:48;7.25;;;4.10;;
69985;SDS011;57328;52.054;5.294;2023-06-10T14:12:17;11.75;;;3.95;;
69985;SDS011;57328;52.054;5.294;2023-06-10T14:14:44;6.72;;;3.83;;
69985;SDS011;57328;52.054;5.294;2023-06-10T14:17:11;6.47;;;4.00;;
69985;SDS011;57328;52.054;5.294;2023-06-10T14:19:38;7.00;;;4.00;;
69985;SDS011;57328;52.054;5.294;2023-06-10T14:22:06;6.55;;;3.70;;
69985;SDS011;57328;52.054;5.294;2023-06-10T14:24:35;7.43;;;4.25;;
69985;SDS011;57328;52.054;5.294;2023-06-10T14:27:05;7.55;;;4.80;;
69985;SDS011;57328;52.054;5.294;2023-06-10T14:29:32;7.90;;;3.72;;
69985;SDS011;57328;52.054;5.294;2023-06-10T14:32:00;10.90;;;4.45;;
69985;SDS011;57328;52.054;5.294;2023-06-10T14:36:59;7.53;;;3.97;;
69985;SDS011;57328;52.054;5.294;2023-06-10T14:39:29;6.88;;;3.60;;
69985;SDS011;57328;52.054;5.294;2023-06-10T14:41:58;7.82;;;4.03;;
69985;SDS011;57328;52.054;5.294;2023-06-10T14:46:58;8.18;;;4.13;;
69985;SDS011;57328;52.054;5.294;2023-06-10T14:49:25;7.55;;;3.65;;
69985;SDS011;57328;52.054;5.294;2023-06-10T14:51:54;9.10;;;4.05;;
69985;SDS011;57328;52.054;5.294;2023-06-10T14:54:21;7.95;;;3.92;;
69985;SDS011;57328;52.054;5.294;2023-06-10T14:59:24;7.68;;;3.75;;
69985;SDS011;57328;52.054;5.294;2023-06-10T15:04:47;5.88;;;3.22;;
69985;SDS011;57328;52.054;5.294;2023-06-10T15:09:41;13.82;;;6.13;;
69985;SDS011;57328;52.054;5.294;2023-06-10T15:12:09;8.40;;;3.92;;
69985;SDS011;57328;52.054;5.294;2023-06-10T15:14:37;8.20;;;3.72;;
69985;SDS011;57328;52.054;5.294;2023-06-10T15:17:04;7.82;;;4.15;;
69985;SDS011;57328;52.054;5.294;2023-06-10T15:19:31;7.30;;;3.88;;
69985;SDS011;57328;52.054;5.294;2023-06-10T15:21:59;7.95;;;3.90;;
69985;SDS011;57328;52.054;5.294;2023-06-10T15:24:26;6.18;;;3.17;;
69985;SDS011;57328;52.054;5.294;2023-06-10T15:26:53;6.55;;;4.03;;
69985;SDS011;57328;52.054;5.294;2023-06-10T15:29:20;7.95;;;4.22;;
69985;SDS011;57328;52.054;5.294;2023-06-10T15:31:48;8.20;;;3.22;;
69985;SDS011;57328;52.054;5.294;2023-06-10T15:34:22;8.85;;;4.30;;
69985;SDS011;57328;52.054;5.294;2023-06-10T15:36:50;6.85;;;4.00;;
69985;SDS011;57328;52.054;5.294;2023-06-10T15:39:17;8.40;;;4.15;;
69985;SDS011;57328;52.054;5.294;2023-06-10T15:41:45;10.27;;;4.18;;
69985;SDS011;57328;52.054;5.294;2023-06-10T15:44:12;8.10;;;3.67;;
69985;SDS011;57328;52.054;5.294;2023-06-10T15:46:39;7.30;;;3.78;;
69985;SDS011;57328;52.054;5.294;2023-06-10T15:51:34;7.53;;;4.30;;
69985;SDS011;57328;52.054;5.294;2023-06-10T15:54:02;7.00;;;3.40;;
69985;SDS011;57328;52.054;5.294;2023-06-10T15:56:29;6.75;;;3.90;;
69985;SDS011;57328;52.054;5.294;2023-06-10T15:58:56;12.15;;;6.18;;
69985;SDS011;57328;52.054;5.294;2023-06-10T16:01:25;9.07;;;4.40;;
69985;SDS011;57328;52.054;5.294;2023-06-10T16:03:53;7.28;;;4.20;;
69985;SDS011;57328;52.054;5.294;2023-06-10T16:06:20;6.57;;;4.13;;
69985;SDS011;57328;52.054;5.294;2023-06-10T16:08:49;7.28;;;3.92;;
69985;SDS011;57328;52.054;5.294;2023-06-10T16:11:16;8.00;;;4.10;;
69985;SDS011;57328;52.054;5.294;2023-06-10T16:13:44;6.35;;;3.45;;
69985;SDS011;57328;52.054;5.294;2023-06-10T16:16:11;8.43;;;4.63;;
69985;SDS011;57328;52.054;5.294;2023-06-10T16:21:06;9.13;;;4.30;;
69985;SDS011;57328;52.054;5.294;2023-06-10T16:23:33;7.47;;;4.35;;
69985;SDS011;57328;52.054;5.294;2023-06-10T16:26:04;6.88;;;3.92;;
69985;SDS011;57328;52.054;5.294;2023-06-10T16:28:31;5.57;;;3.15;;
69985;SDS011;57328;52.054;5.294;2023-06-10T16:30:58;8.02;;;3.90;;
69985;SDS011;57328;52.054;5.294;2023-06-10T16:35:53;14.40;;;4.20;;
69985;SDS011;57328;52.054;5.294;2023-06-10T16:38:21;6.47;;;3.88;;